sensor_id;sensor_type;location;lat;lon;timestamp;pressure;altitude;pressure_sealevel;temperature;humidity
6615;BME280;3343;42.896;23.912;2023-03-22T00:00:07;72720.06;;;-145.80;63.36
6615;BME280;3343;42.896;23.912;2023-03-22T00:02:39;72730.09;;;-145.80;63.63
6615;BME280;3343;42.896;23.912;2023-03-22T00:05:06;72750.13;;;-145.80;63.64
6615;BME280;3343;42.896;23.912;2023-03-22T00:07:33;72778.22;;;-145.80;64.04
6615;BME280;3343;42.896;23.912;2023-03-22T00:10:03;72768.19;;;-145.80;63.87
6615;BME280;3343;42.896;23.912;2023-03-22T00:12:31;72744.13;;;-145.80;63.44
6615;BME280;3343;42.896;23.912;2023-03-22T00:14:58;72780.22;;;-145.80;63.82
6615;BME280;3343;42.896;23.912;2023-03-22T00:17:25;72760.16;;;-145.80;63.62
6615;BME280;3343;42.896;23.912;2023-03-22T00:19:54;72730.09;;;-145.80;63.60
6615;BME280;3343;42.896;23.912;2023-03-22T00:22:23;72772.19;;;-145.80;64.04
6615;BME280;3343;42.896;23.912;2023-03-22T00:24:50;72770.19;;;-145.80;64.21
6615;BME280;3343;42.896;23.912;2023-03-22T00:27:16;72760.16;;;-145.80;64.16
6615;BME280;3343;42.896;23.912;2023-03-22T00:29:45;72740.09;;;-145.80;64.05
6615;BME280;3343;42.896;23.912;2023-03-22T00:32:11;72742.13;;;-145.80;63.82
6615;BME280;3343;42.896;23.912;2023-03-22T00:34:38;72728.06;;;-145.80;63.20
6615;BME280;3343;42.896;23.912;2023-03-22T00:37:05;72784.22;;;-145.80;64.12
6615;BME280;3343;42.896;23.912;2023-03-22T00:39:32;72776.22;;;-145.80;64.11
6615;BME280;3343;42.896;23.912;2023-03-22T00:41:59;72800.28;;;-145.80;65.14
6615;BME280;3343;42.896;23.912;2023-03-22T00:44:26;72804.28;;;-145.80;65.05
6615;BME280;3343;42.896;23.912;2023-03-22T00:46:55;72770.19;;;-145.80;64.59
6615;BME280;3343;42.896;23.912;2023-03-22T00:49:22;72798.25;;;-145.80;64.94
6615;BME280;3343;42.896;23.912;2023-03-22T00:51:50;72780.22;;;-145.80;64.66
6615;BME280;3343;42.896;23.912;2023-03-22T00:54:17;72762.16;;;-145.80;64.32
6615;BME280;3343;42.896;23.912;2023-03-22T00:56:43;72754.16;;;-145.80;64.62
6615;BME280;3343;42.896;23.912;2023-03-22T00:59:10;72730.09;;;-145.80;64.44
6615;BME280;3343;42.896;23.912;2023-03-22T01:01:38;72770.19;;;-145.80;64.88
6615;BME280;3343;42.896;23.912;2023-03-22T01:04:06;72772.19;;;-145.80;65.10
6615;BME280;3343;42.896;23.912;2023-03-22T01:06:34;72780.22;;;-145.80;65.01
6615;BME280;3343;42.896;23.912;2023-03-22T01:09:01;72782.22;;;-145.80;64.92
6615;BME280;3343;42.896;23.912;2023-03-22T01:11:29;72776.22;;;-145.80;65.33
6615;BME280;3343;42.896;23.912;2023-03-22T01:13:56;72776.22;;;-145.80;65.30
6615;BME280;3343;42.896;23.912;2023-03-22T01:16:24;72780.22;;;-145.80;65.19
6615;BME280;3343;42.896;23.912;2023-03-22T01:18:50;72776.22;;;-145.80;65.00
6615;BME280;3343;42.896;23.912;2023-03-22T01:21:19;72704.00;;;-145.80;63.82
6615;BME280;3343;42.896;23.912;2023-03-22T01:23:45;72708.03;;;-145.80;63.48
6615;BME280;3343;42.896;23.912;2023-03-22T01:26:12;72683.97;;;-145.80;62.60
6615;BME280;3343;42.896;23.912;2023-03-22T01:28:39;72669.91;;;-145.80;61.74
6615;BME280;3343;42.896;23.912;2023-03-22T01:31:06;72633.81;;;-145.80;61.42
6615;BME280;3343;42.896;23.912;2023-03-22T01:33:33;72631.81;;;-145.80;61.08
6615;BME280;3343;42.896;23.912;2023-03-22T01:36:00;72599.75;;;-145.80;60.15
6615;BME280;3343;42.896;23.912;2023-03-22T01:38:28;72571.66;;;-145.80;59.53
6615;BME280;3343;42.896;23.912;2023-03-22T01:40:55;72599.75;;;-145.80;59.70
6615;BME280;3343;42.896;23.912;2023-03-22T01:43:21;72601.75;;;-145.80;60.18
6615;BME280;3343;42.896;23.912;2023-03-22T01:45:49;72577.69;;;-145.80;60.30
6615;BME280;3343;42.896;23.912;2023-03-22T01:48:25;72535.56;;;-145.80;59.72
6615;BME280;3343;42.896;23.912;2023-03-22T01:51:01;72535.56;;;-145.80;59.57
6615;BME280;3343;42.896;23.912;2023-03-22T01:53:33;72557.63;;;-145.80;59.41
6615;BME280;3343;42.896;23.912;2023-03-22T01:56:02;72571.66;;;-145.80;59.32
6615;BME280;3343;42.896;23.912;2023-03-22T01:58:30;72567.66;;;-145.80;59.04
6615;BME280;3343;42.896;23.912;2023-03-22T02:00:57;72577.69;;;-145.80;58.95
6615;BME280;3343;42.896;23.912;2023-03-22T02:03:31;72563.63;;;-145.80;58.59
6615;BME280;3343;42.896;23.912;2023-03-22T02:06:00;72619.78;;;-145.80;59.44
6615;BME280;3343;42.896;23.912;2023-03-22T02:08:28;72591.72;;;-145.80;58.87
6615;BME280;3343;42.896;23.912;2023-03-22T02:10:59;72597.72;;;-145.80;58.63
6615;BME280;3343;42.896;23.912;2023-03-22T02:13:45;72587.69;;;-145.80;57.65
6615;BME280;3343;42.896;23.912;2023-03-22T02:16:23;72611.78;;;-145.80;57.63
6615;BME280;3343;42.896;23.912;2023-03-22T02:19:01;72609.75;;;-145.80;58.07
6615;BME280;3343;42.896;23.912;2023-03-22T02:22:01;72591.72;;;-145.80;57.54
6615;BME280;3343;42.896;23.912;2023-03-22T02:25:17;72583.69;;;-145.80;57.58
6615;BME280;3343;42.896;23.912;2023-03-22T02:28:13;72587.69;;;-145.80;57.73
6615;BME280;3343;42.896;23.912;2023-03-22T02:30:55;72555.63;;;-145.80;56.61
6615;BME280;3343;42.896;23.912;2023-03-22T02:33:45;72611.78;;;-145.80;57.82
6615;BME280;3343;42.896;23.912;2023-03-22T02:36:35;72615.78;;;-145.80;58.77
6615;BME280;3343;42.896;23.912;2023-03-22T02:39:28;72629.81;;;-145.80;59.11
6615;BME280;3343;42.896;23.912;2023-03-22T02:42:06;72631.81;;;-145.80;59.28
6615;BME280;3343;42.896;23.912;2023-03-22T02:44:41;72631.81;;;-145.80;59.50
6615;BME280;3343;42.896;23.912;2023-03-22T02:47:15;72663.91;;;-145.80;60.07
6615;BME280;3343;42.896;23.912;2023-03-22T02:49:52;72698.00;;;-145.80;60.67
6615;BME280;3343;42.896;23.912;2023-03-22T02:52:25;72716.03;;;-145.80;61.57
6615;BME280;3343;42.896;23.912;2023-03-22T02:55:01;72760.16;;;-145.80;62.17
6615;BME280;3343;42.896;23.912;2023-03-22T02:57:34;72752.13;;;-145.80;62.64
6615;BME280;3343;42.896;23.912;2023-03-22T03:00:05;72754.16;;;-145.80;62.60
6615;BME280;3343;42.896;23.912;2023-03-22T03:02:38;72746.13;;;-145.80;62.69
6615;BME280;3343;42.896;23.912;2023-03-22T03:05:09;72762.16;;;-145.80;62.76
6615;BME280;3343;42.896;23.912;2023-03-22T03:07:40;72720.06;;;-145.80;61.91
6615;BME280;3343;42.896;23.912;2023-03-22T03:10:12;72683.97;;;-145.80;60.94
6615;BME280;3343;42.896;23.912;2023-03-22T03:12:41;72700.00;;;-145.80;61.29
6615;BME280;3343;42.896;23.912;2023-03-22T03:15:11;72685.97;;;-145.80;61.69
6615;BME280;3343;42.896;23.912;2023-03-22T03:17:50;72683.97;;;-145.80;61.71
6615;BME280;3343;42.896;23.912;2023-03-22T03:20:26;72665.91;;;-145.80;61.22
6615;BME280;3343;42.896;23.912;2023-03-22T03:23:09;72651.88;;;-145.80;61.24
6615;BME280;3343;42.896;23.912;2023-03-22T03:25:44;72635.84;;;-145.80;60.34
6615;BME280;3343;42.896;23.912;2023-03-22T03:28:16;72649.88;;;-145.80;59.69
6615;BME280;3343;42.896;23.912;2023-03-22T03:30:54;72645.84;;;-145.80;59.52
6615;BME280;3343;42.896;23.912;2023-03-22T03:33:24;72669.91;;;-145.80;60.42
6615;BME280;3343;42.896;23.912;2023-03-22T03:35:54;72693.97;;;-145.80;61.26
6615;BME280;3343;42.896;23.912;2023-03-22T03:38:27;72693.97;;;-145.80;61.11
6615;BME280;3343;42.896;23.912;2023-03-22T03:40:59;72673.94;;;-145.80;60.53
6615;BME280;3343;42.896;23.912;2023-03-22T03:43:27;72687.97;;;-145.80;60.79
6615;BME280;3343;42.896;23.912;2023-03-22T03:45:54;72673.94;;;-145.80;60.44
6615;BME280;3343;42.896;23.912;2023-03-22T03:48:23;72635.84;;;-145.80;60.15
6615;BME280;3343;42.896;23.912;2023-03-22T03:50:53;72639.84;;;-145.80;59.74
6615;BME280;3343;42.896;23.912;2023-03-22T03:53:22;72669.91;;;-145.80;60.00
6615;BME280;3343;42.896;23.912;2023-03-22T03:55:49;72655.88;;;-145.80;60.14
6615;BME280;3343;42.896;23.912;2023-03-22T03:58:17;72645.84;;;-145.80;59.99
6615;BME280;3343;42.896;23.912;2023-03-22T04:00:45;72655.88;;;-145.80;60.11
6615;BME280;3343;42.896;23.912;2023-03-22T04:03:12;72696.00;;;-145.80;60.86
6615;BME280;3343;42.896;23.912;2023-03-22T04:05:40;72724.06;;;-145.80;61.55
6615;BME280;3343;42.896;23.912;2023-03-22T04:08:07;72700.00;;;-145.80;61.04
6615;BME280;3343;42.896;23.912;2023-03-22T04:10:34;72724.06;;;-145.80;61.40
6615;BME280;3343;42.896;23.912;2023-03-22T04:13:01;72724.06;;;-145.80;61.54
6615;BME280;3343;42.896;23.912;2023-03-22T04:15:30;72736.09;;;-145.80;61.97
6615;BME280;3343;42.896;23.912;2023-03-22T04:17:58;72748.13;;;-145.80;62.10
6615;BME280;3343;42.896;23.912;2023-03-22T04:20:25;72768.19;;;-145.80;62.38
6615;BME280;3343;42.896;23.912;2023-03-22T04:22:52;72772.19;;;-145.80;62.29
6615;BME280;3343;42.896;23.912;2023-03-22T04:25:19;72780.22;;;-145.80;62.52
6615;BME280;3343;42.896;23.912;2023-03-22T04:27:47;72776.22;;;-145.80;62.81
6615;BME280;3343;42.896;23.912;2023-03-22T04:30:16;72760.16;;;-145.80;62.39
6615;BME280;3343;42.896;23.912;2023-03-22T04:32:46;72756.16;;;-145.80;62.38
6615;BME280;3343;42.896;23.912;2023-03-22T04:35:13;72788.25;;;-145.80;62.92
6615;BME280;3343;42.896;23.912;2023-03-22T04:37:41;72760.16;;;-145.80;62.12
6615;BME280;3343;42.896;23.912;2023-03-22T04:40:10;72740.09;;;-145.80;61.61
6615;BME280;3343;42.896;23.912;2023-03-22T04:42:42;72744.13;;;-145.80;61.23
6615;BME280;3343;42.896;23.912;2023-03-22T04:45:10;72738.09;;;-145.80;60.97
6615;BME280;3343;42.896;23.912;2023-03-22T04:47:38;72732.09;;;-145.80;61.11
6615;BME280;3343;42.896;23.912;2023-03-22T04:50:07;72708.03;;;-145.80;61.01
6615;BME280;3343;42.896;23.912;2023-03-22T04:52:34;72750.13;;;-145.80;61.44
6615;BME280;3343;42.896;23.912;2023-03-22T04:55:01;72824.34;;;-145.80;63.48
6615;BME280;3343;42.896;23.912;2023-03-22T04:57:28;72838.38;;;-145.80;63.68
6615;BME280;3343;42.896;23.912;2023-03-22T04:59:55;72838.38;;;-145.80;63.51
6615;BME280;3343;42.896;23.912;2023-03-22T05:02:21;72876.47;;;-145.80;63.64
6615;BME280;3343;42.896;23.912;2023-03-22T05:04:48;72864.44;;;-145.80;63.62
6615;BME280;3343;42.896;23.912;2023-03-22T05:07:17;72832.34;;;-145.80;62.96
6615;BME280;3343;42.896;23.912;2023-03-22T05:09:43;72824.34;;;-145.80;62.73
6615;BME280;3343;42.896;23.912;2023-03-22T05:12:10;72852.41;;;-145.80;62.79
6615;BME280;3343;42.896;23.912;2023-03-22T05:14:37;72882.50;;;-145.80;63.30
6615;BME280;3343;42.896;23.912;2023-03-22T05:17:04;72924.59;;;-145.80;64.21
6615;BME280;3343;42.896;23.912;2023-03-22T05:19:31;72926.63;;;-145.80;64.52
6615;BME280;3343;42.896;23.912;2023-03-22T05:21:58;72928.63;;;-145.80;65.04
6615;BME280;3343;42.896;23.912;2023-03-22T05:24:28;72850.41;;;-145.80;63.60
6615;BME280;3343;42.896;23.912;2023-03-22T05:26:56;72832.34;;;-145.80;63.03
6615;BME280;3343;42.896;23.912;2023-03-22T05:29:25;72812.31;;;-145.80;62.96
6615;BME280;3343;42.896;23.912;2023-03-22T05:31:52;72776.22;;;-145.80;61.65
6615;BME280;3343;42.896;23.912;2023-03-22T05:34:19;72786.22;;;-145.80;61.80
6615;BME280;3343;42.896;23.912;2023-03-22T05:36:46;72760.16;;;-145.80;60.47
6615;BME280;3343;42.896;23.912;2023-03-22T05:39:16;72764.16;;;-145.80;60.21
6615;BME280;3343;42.896;23.912;2023-03-22T05:41:45;72744.13;;;-145.80;60.36
6615;BME280;3343;42.896;23.912;2023-03-22T05:44:12;72746.13;;;-145.80;59.82
6615;BME280;3343;42.896;23.912;2023-03-22T05:46:38;72766.19;;;-145.80;60.39
6615;BME280;3343;42.896;23.912;2023-03-22T05:49:05;72752.13;;;-145.80;60.38
6615;BME280;3343;42.896;23.912;2023-03-22T05:51:32;72740.09;;;-145.80;60.01
6615;BME280;3343;42.896;23.912;2023-03-22T05:54:06;72730.09;;;-145.80;59.10
6615;BME280;3343;42.896;23.912;2023-03-22T05:56:33;72740.09;;;-145.80;59.17
6615;BME280;3343;42.896;23.912;2023-03-22T05:59:01;72700.00;;;-145.80;57.75
6615;BME280;3343;42.896;23.912;2023-03-22T06:01:28;72746.13;;;-145.80;58.72
6615;BME280;3343;42.896;23.912;2023-03-22T06:03:55;72756.16;;;-145.80;58.90
6615;BME280;3343;42.896;23.912;2023-03-22T06:06:22;72748.13;;;-145.80;58.90
6615;BME280;3343;42.896;23.912;2023-03-22T06:08:49;72742.13;;;-145.80;59.22
6615;BME280;3343;42.896;23.912;2023-03-22T06:11:15;72742.13;;;-145.80;59.42
6615;BME280;3343;42.896;23.912;2023-03-22T06:13:43;72750.13;;;-145.80;59.07
6615;BME280;3343;42.896;23.912;2023-03-22T06:16:12;72693.97;;;-145.80;58.38
6615;BME280;3343;42.896;23.912;2023-03-22T06:18:38;72708.03;;;-145.80;58.08
6615;BME280;3343;42.896;23.912;2023-03-22T06:21:05;72710.03;;;-145.80;57.40
6615;BME280;3343;42.896;23.912;2023-03-22T06:23:32;72722.06;;;-145.80;57.79
6615;BME280;3343;42.896;23.912;2023-03-22T06:25:59;72710.03;;;-145.80;57.45
6615;BME280;3343;42.896;23.912;2023-03-22T06:28:26;72714.03;;;-145.80;56.93
6615;BME280;3343;42.896;23.912;2023-03-22T06:30:54;72681.94;;;-145.80;56.11
6615;BME280;3343;42.896;23.912;2023-03-22T06:33:22;72679.94;;;-145.80;56.93
6615;BME280;3343;42.896;23.912;2023-03-22T06:35:49;72700.00;;;-145.80;56.67
6615;BME280;3343;42.896;23.912;2023-03-22T06:38:16;72764.16;;;-145.80;58.32
6615;BME280;3343;42.896;23.912;2023-03-22T06:40:43;72766.19;;;-145.80;58.61
6615;BME280;3343;42.896;23.912;2023-03-22T06:43:10;72792.25;;;-145.80;59.14
6615;BME280;3343;42.896;23.912;2023-03-22T06:45:36;72798.25;;;-145.80;59.30
6615;BME280;3343;42.896;23.912;2023-03-22T06:48:04;72780.22;;;-145.80;59.48
6615;BME280;3343;42.896;23.912;2023-03-22T06:50:32;72776.22;;;-145.80;59.04
6615;BME280;3343;42.896;23.912;2023-03-22T06:53:02;72822.34;;;-145.80;59.55
6615;BME280;3343;42.896;23.912;2023-03-22T06:55:29;72798.25;;;-145.80;59.25
6615;BME280;3343;42.896;23.912;2023-03-22T06:57:59;72788.25;;;-145.80;59.26
6615;BME280;3343;42.896;23.912;2023-03-22T07:00:26;72754.16;;;-145.80;59.10
6615;BME280;3343;42.896;23.912;2023-03-22T07:02:53;72754.16;;;-145.80;59.00
6615;BME280;3343;42.896;23.912;2023-03-22T07:05:20;72748.13;;;-145.80;58.28
6615;BME280;3343;42.896;23.912;2023-03-22T07:07:48;72740.09;;;-145.80;58.64
6615;BME280;3343;42.896;23.912;2023-03-22T07:10:15;72752.13;;;-145.80;57.54
6615;BME280;3343;42.896;23.912;2023-03-22T07:12:42;72752.13;;;-145.80;57.51
6615;BME280;3343;42.896;23.912;2023-03-22T07:15:10;72722.06;;;-145.80;57.62
6615;BME280;3343;42.896;23.912;2023-03-22T07:17:36;72740.09;;;-145.80;57.16
6615;BME280;3343;42.896;23.912;2023-03-22T07:20:04;72720.06;;;-145.80;57.51
6615;BME280;3343;42.896;23.912;2023-03-22T07:22:31;72754.16;;;-145.80;58.17
6615;BME280;3343;42.896;23.912;2023-03-22T07:25:00;72716.03;;;-145.80;57.70
6615;BME280;3343;42.896;23.912;2023-03-22T07:27:26;72728.06;;;-145.80;57.35
6615;BME280;3343;42.896;23.912;2023-03-22T07:29:53;72732.09;;;-145.80;56.53
6615;BME280;3343;42.896;23.912;2023-03-22T07:32:20;72720.06;;;-145.80;56.17
6615;BME280;3343;42.896;23.912;2023-03-22T07:34:47;72722.06;;;-145.80;56.76
6615;BME280;3343;42.896;23.912;2023-03-22T07:37:13;72746.13;;;-145.80;56.77
6615;BME280;3343;42.896;23.912;2023-03-22T07:39:40;72728.06;;;-145.80;56.86
6615;BME280;3343;42.896;23.912;2023-03-22T07:42:08;72700.00;;;-145.80;55.64
6615;BME280;3343;42.896;23.912;2023-03-22T07:44:35;72710.03;;;-145.80;55.76
6615;BME280;3343;42.896;23.912;2023-03-22T07:47:02;72683.97;;;-145.80;55.54
6615;BME280;3343;42.896;23.912;2023-03-22T07:49:29;72675.94;;;-145.80;56.00
6615;BME280;3343;42.896;23.912;2023-03-22T07:51:56;72698.00;;;-145.80;55.55
6615;BME280;3343;42.896;23.912;2023-03-22T07:54:23;72700.00;;;-145.80;55.70
6615;BME280;3343;42.896;23.912;2023-03-22T07:56:50;72716.03;;;-145.80;56.14
6615;BME280;3343;42.896;23.912;2023-03-22T07:59:18;72679.94;;;-145.80;56.03
6615;BME280;3343;42.896;23.912;2023-03-22T08:01:45;72683.97;;;-145.80;56.04
6615;BME280;3343;42.896;23.912;2023-03-22T08:04:12;72679.94;;;-145.80;55.66
6615;BME280;3343;42.896;23.912;2023-03-22T08:06:39;72663.91;;;-145.80;55.80
6615;BME280;3343;42.896;23.912;2023-03-22T08:09:08;72647.88;;;-145.80;55.73
6615;BME280;3343;42.896;23.912;2023-03-22T08:11:35;72693.97;;;-145.80;55.55
6615;BME280;3343;42.896;23.912;2023-03-22T08:14:02;72689.97;;;-145.80;56.06
6615;BME280;3343;42.896;23.912;2023-03-22T08:16:31;72663.91;;;-145.80;55.57
6615;BME280;3343;42.896;23.912;2023-03-22T08:18:58;72683.97;;;-145.80;55.81
6615;BME280;3343;42.896;23.912;2023-03-22T08:21:25;72679.94;;;-145.80;55.21
6615;BME280;3343;42.896;23.912;2023-03-22T08:23:52;72665.91;;;-145.80;54.90
6615;BME280;3343;42.896;23.912;2023-03-22T08:26:19;72691.97;;;-145.80;55.27
6615;BME280;3343;42.896;23.912;2023-03-22T08:28:47;72655.88;;;-145.80;55.42
6615;BME280;3343;42.896;23.912;2023-03-22T08:31:15;72687.97;;;-145.80;55.92
6615;BME280;3343;42.896;23.912;2023-03-22T08:33:44;72679.94;;;-145.80;56.31
6615;BME280;3343;42.896;23.912;2023-03-22T08:36:14;72687.97;;;-145.80;55.86
6615;BME280;3343;42.896;23.912;2023-03-22T08:38:41;72712.03;;;-145.80;56.04
6615;BME280;3343;42.896;23.912;2023-03-22T08:41:09;72718.06;;;-145.80;56.00
6615;BME280;3343;42.896;23.912;2023-03-22T08:43:36;72728.06;;;-145.80;55.59
6615;BME280;3343;42.896;23.912;2023-03-22T08:46:04;72728.06;;;-145.80;56.24
6615;BME280;3343;42.896;23.912;2023-03-22T08:48:31;72730.09;;;-145.80;56.06
6615;BME280;3343;42.896;23.912;2023-03-22T08:51:00;72738.09;;;-145.80;56.42
6615;BME280;3343;42.896;23.912;2023-03-22T08:53:27;72730.09;;;-145.80;55.82
6615;BME280;3343;42.896;23.912;2023-03-22T08:55:54;72718.06;;;-145.80;55.61
6615;BME280;3343;42.896;23.912;2023-03-22T08:58:22;72700.00;;;-145.80;55.40
6615;BME280;3343;42.896;23.912;2023-03-22T09:00:49;72683.97;;;-145.80;55.19
6615;BME280;3343;42.896;23.912;2023-03-22T09:03:16;72673.94;;;-145.80;55.25
6615;BME280;3343;42.896;23.912;2023-03-22T09:05:43;72653.88;;;-145.80;54.29
6615;BME280;3343;42.896;23.912;2023-03-22T09:08:11;72633.81;;;-145.80;54.10
6615;BME280;3343;42.896;23.912;2023-03-22T09:10:38;72663.91;;;-145.80;54.22
6615;BME280;3343;42.896;23.912;2023-03-22T09:13:05;72689.97;;;-145.80;54.90
6615;BME280;3343;42.896;23.912;2023-03-22T09:15:32;72691.97;;;-145.80;54.78
6615;BME280;3343;42.896;23.912;2023-03-22T09:17:58;72696.00;;;-145.80;55.30
6615;BME280;3343;42.896;23.912;2023-03-22T09:20:25;72683.97;;;-145.80;55.09
6615;BME280;3343;42.896;23.912;2023-03-22T09:22:52;72716.03;;;-145.80;55.21
6615;BME280;3343;42.896;23.912;2023-03-22T09:25:20;72726.06;;;-145.80;56.97
6615;BME280;3343;42.896;23.912;2023-03-22T09:27:48;72720.06;;;-145.80;56.30
6615;BME280;3343;42.896;23.912;2023-03-22T09:30:15;72726.06;;;-145.80;56.45
6615;BME280;3343;42.896;23.912;2023-03-22T09:32:41;72732.09;;;-145.80;56.52
6615;BME280;3343;42.896;23.912;2023-03-22T09:35:08;72748.13;;;-145.80;56.18
6615;BME280;3343;42.896;23.912;2023-03-22T09:37:35;72728.06;;;-145.80;56.08
6615;BME280;3343;42.896;23.912;2023-03-22T09:40:03;72704.00;;;-145.80;55.81
6615;BME280;3343;42.896;23.912;2023-03-22T09:42:35;72708.03;;;-145.80;55.99
6615;BME280;3343;42.896;23.912;2023-03-22T09:45:06;72720.06;;;-145.80;55.83
6615;BME280;3343;42.896;23.912;2023-03-22T09:47:39;72722.06;;;-145.80;56.55
6615;BME280;3343;42.896;23.912;2023-03-22T09:50:12;72722.06;;;-145.80;56.67
6615;BME280;3343;42.896;23.912;2023-03-22T09:52:39;72752.13;;;-145.80;56.66
6615;BME280;3343;42.896;23.912;2023-03-22T09:55:16;72706.00;;;-145.80;55.91
6615;BME280;3343;42.896;23.912;2023-03-22T09:57:49;72659.91;;;-145.80;54.99
6615;BME280;3343;42.896;23.912;2023-03-22T10:00:21;72663.91;;;-145.80;55.05
6615;BME280;3343;42.896;23.912;2023-03-22T10:02:57;72655.88;;;-145.80;54.86
6615;BME280;3343;42.896;23.912;2023-03-22T10:05:30;72635.84;;;-145.80;54.27
6615;BME280;3343;42.896;23.912;2023-03-22T10:08:16;72623.81;;;-145.80;54.27
6615;BME280;3343;42.896;23.912;2023-03-22T10:10:47;72637.84;;;-145.80;54.34
6615;BME280;3343;42.896;23.912;2023-03-22T10:13:21;72621.78;;;-145.80;53.98
6615;BME280;3343;42.896;23.912;2023-03-22T10:15:50;72627.81;;;-145.80;53.99
6615;BME280;3343;42.896;23.912;2023-03-22T10:18:21;72617.78;;;-145.80;53.93
6615;BME280;3343;42.896;23.912;2023-03-22T10:20:54;72585.69;;;-145.80;53.93
6615;BME280;3343;42.896;23.912;2023-03-22T10:23:27;72593.72;;;-145.80;54.31
6615;BME280;3343;42.896;23.912;2023-03-22T10:25:56;72623.81;;;-145.80;54.65
6615;BME280;3343;42.896;23.912;2023-03-22T10:28:29;72603.75;;;-145.80;54.15
6615;BME280;3343;42.896;23.912;2023-03-22T10:30:57;72633.81;;;-145.80;54.09
6615;BME280;3343;42.896;23.912;2023-03-22T10:33:37;72583.69;;;-145.80;53.29
6615;BME280;3343;42.896;23.912;2023-03-22T10:36:06;72591.72;;;-145.80;54.68
6615;BME280;3343;42.896;23.912;2023-03-22T10:38:42;72543.59;;;-145.80;53.84
6615;BME280;3343;42.896;23.912;2023-03-22T10:41:12;72565.66;;;-145.80;54.10
6615;BME280;3343;42.896;23.912;2023-03-22T10:43:43;72577.69;;;-145.80;54.67
6615;BME280;3343;42.896;23.912;2023-03-22T10:46:14;72603.75;;;-145.80;55.22
6615;BME280;3343;42.896;23.912;2023-03-22T10:48:45;72587.69;;;-145.80;55.08
6615;BME280;3343;42.896;23.912;2023-03-22T10:51:20;72569.66;;;-145.80;54.92
6615;BME280;3343;42.896;23.912;2023-03-22T10:53:50;72575.66;;;-145.80;55.35
6615;BME280;3343;42.896;23.912;2023-03-22T10:56:19;72575.66;;;-145.80;54.82
6615;BME280;3343;42.896;23.912;2023-03-22T10:58:48;72549.59;;;-145.80;54.66
6615;BME280;3343;42.896;23.912;2023-03-22T11:01:24;72571.66;;;-145.80;54.60
6615;BME280;3343;42.896;23.912;2023-03-22T11:03:55;72557.63;;;-145.80;54.88
6615;BME280;3343;42.896;23.912;2023-03-22T11:06:24;72579.69;;;-145.80;55.04
6615;BME280;3343;42.896;23.912;2023-03-22T11:08:53;72581.69;;;-145.80;55.19
6615;BME280;3343;42.896;23.912;2023-03-22T11:11:22;72597.72;;;-145.80;55.26
6615;BME280;3343;42.896;23.912;2023-03-22T11:13:57;72605.75;;;-145.80;55.03
6615;BME280;3343;42.896;23.912;2023-03-22T11:16:24;72651.88;;;-145.80;55.54
6615;BME280;3343;42.896;23.912;2023-03-22T11:18:51;72621.78;;;-145.80;55.39
6615;BME280;3343;42.896;23.912;2023-03-22T11:21:23;72593.72;;;-145.80;54.57
6615;BME280;3343;42.896;23.912;2023-03-22T11:23:57;72587.69;;;-145.80;55.04
6615;BME280;3343;42.896;23.912;2023-03-22T11:26:28;72599.75;;;-145.80;55.13
6615;BME280;3343;42.896;23.912;2023-03-22T11:29:10;72609.75;;;-145.80;55.49
6615;BME280;3343;42.896;23.912;2023-03-22T11:31:51;72605.75;;;-145.80;55.27
6615;BME280;3343;42.896;23.912;2023-03-22T11:34:21;72669.91;;;-145.80;56.64
6615;BME280;3343;42.896;23.912;2023-03-22T11:36:49;72667.91;;;-145.80;56.12
6615;BME280;3343;42.896;23.912;2023-03-22T11:39:22;72659.91;;;-145.80;56.56
6615;BME280;3343;42.896;23.912;2023-03-22T11:41:50;72667.91;;;-145.80;56.91
6615;BME280;3343;42.896;23.912;2023-03-22T11:44:20;72653.88;;;-145.80;56.60
6615;BME280;3343;42.896;23.912;2023-03-22T11:46:51;72675.94;;;-145.80;57.58
6615;BME280;3343;42.896;23.912;2023-03-22T11:49:23;72659.91;;;-145.80;57.51
6615;BME280;3343;42.896;23.912;2023-03-22T11:51:52;72679.94;;;-145.80;57.97
6615;BME280;3343;42.896;23.912;2023-03-22T11:54:26;72635.84;;;-145.80;56.95
6615;BME280;3343;42.896;23.912;2023-03-22T11:56:57;72637.84;;;-145.80;56.84
6615;BME280;3343;42.896;23.912;2023-03-22T11:59:27;72639.84;;;-145.80;56.65
6615;BME280;3343;42.896;23.912;2023-03-22T12:01:59;72651.88;;;-145.80;56.75
6615;BME280;3343;42.896;23.912;2023-03-22T12:04:33;72663.91;;;-145.80;57.45
6615;BME280;3343;42.896;23.912;2023-03-22T12:07:05;72677.94;;;-145.80;57.58
6615;BME280;3343;42.896;23.912;2023-03-22T12:09:40;72691.97;;;-145.80;57.06
6615;BME280;3343;42.896;23.912;2023-03-22T12:12:12;72683.97;;;-145.80;57.28
6615;BME280;3343;42.896;23.912;2023-03-22T12:14:46;72659.91;;;-145.80;56.64
6615;BME280;3343;42.896;23.912;2023-03-22T12:17:22;72665.91;;;-145.80;56.96
6615;BME280;3343;42.896;23.912;2023-03-22T12:20:11;72679.94;;;-145.80;56.76
6615;BME280;3343;42.896;23.912;2023-03-22T12:22:43;72667.91;;;-145.80;56.99
6615;BME280;3343;42.896;23.912;2023-03-22T12:25:13;72665.91;;;-145.80;56.95
6615;BME280;3343;42.896;23.912;2023-03-22T12:27:44;72651.88;;;-145.80;56.19
6615;BME280;3343;42.896;23.912;2023-03-22T12:30:17;72693.97;;;-145.80;56.70
6615;BME280;3343;42.896;23.912;2023-03-22T12:32:47;72687.97;;;-145.80;57.47
6615;BME280;3343;42.896;23.912;2023-03-22T12:35:20;72639.84;;;-145.80;56.38
6615;BME280;3343;42.896;23.912;2023-03-22T12:37:50;72635.84;;;-145.80;56.80
6615;BME280;3343;42.896;23.912;2023-03-22T12:40:22;72679.94;;;-145.80;57.32
6615;BME280;3343;42.896;23.912;2023-03-22T12:42:57;72663.91;;;-145.80;56.87
6615;BME280;3343;42.896;23.912;2023-03-22T12:45:28;72663.91;;;-145.80;57.20
6615;BME280;3343;42.896;23.912;2023-03-22T12:48:02;72667.91;;;-145.80;57.13
6615;BME280;3343;42.896;23.912;2023-03-22T12:50:35;72651.88;;;-145.80;57.19
6615;BME280;3343;42.896;23.912;2023-03-22T12:53:04;72675.94;;;-145.80;57.06
6615;BME280;3343;42.896;23.912;2023-03-22T12:55:33;72687.97;;;-145.80;57.47
6615;BME280;3343;42.896;23.912;2023-03-22T12:58:01;72693.97;;;-145.80;57.39
6615;BME280;3343;42.896;23.912;2023-03-22T13:00:37;72655.88;;;-145.80;56.54
6615;BME280;3343;42.896;23.912;2023-03-22T13:03:15;72669.91;;;-145.80;56.56